Time;durP1;ratioP1;P1;durP2;ratioP2;P2;SDS_P1;SDS_P2;PMS_P1;PMS_P2;Temp;Humidity;BMP_temperature;BMP_pressure;BME280_temperature;BME280_humidity;BME280_pressure;Samples;Min_cycle;Max_cycle;Signal;HPM_P1;HPM_P2
2022/06/24 00:00:14;;;;;;;7.20;4.30;;;;;;;19.47;53.14;100518.58;106219;1270;22534;-75
2022/06/24 00:02:46;;;;;;;6.80;5.00;;;;;;;19.46;53.03;100520.60;106312;1270;23019;-76
2022/06/24 00:05:13;;;;;;;5.40;4.80;;;;;;;19.43;53.18;100521.23;106228;1270;22607;-78
2022/06/24 00:07:52;;;;;;;6.00;4.30;;;;;;;19.41;53.09;100518.83;106152;1271;23340;-79
2022/06/24 00:10:21;;;;;;;7.70;4.50;;;;;;;19.37;53.41;100516.48;106373;1270;26140;-78
2022/06/24 00:12:49;;;;;;;7.80;4.40;;;;;;;19.34;53.54;100517.19;106452;1270;25998;-80
2022/06/24 00:15:24;;;;;;;6.10;4.40;;;;;;;19.30;53.73;100514.66;106449;1269;22560;-77
2022/06/24 00:17:51;;;;;;;7.60;4.40;;;;;;;19.25;54.05;100513.11;106193;1270;22654;-76
2022/06/24 00:20:20;;;;;;;8.60;4.50;;;;;;;19.21;54.23;100514.89;106357;1270;26583;-79
2022/06/24 00:22:49;;;;;;;6.80;4.30;;;;;;;19.17;54.49;100519.30;106520;1270;25368;-79
2022/06/24 00:25:21;;;;;;;6.70;4.70;;;;;;;19.16;54.74;100520.45;106194;1272;22675;-81
2022/06/24 00:28:09;;;;;;;8.20;5.50;;;;;;;19.10;55.11;100518.20;106341;1271;24251;-76
2022/06/24 00:30:36;;;;;;;5.80;4.90;;;;;;;19.10;55.76;100524.09;106664;1277;25267;-74
2022/06/24 00:33:23;;;;;;;11.10;5.00;;;;;;;19.06;55.81;100523.33;106122;1274;25766;-82
2022/06/24 00:36:06;;;;;;;9.90;5.40;;;;;;;19.02;56.25;100523.68;106113;1274;22637;-80
2022/06/24 00:38:37;;;;;;;8.50;5.20;;;;;;;18.97;56.52;100522.09;105940;1274;22556;-80
2022/06/24 00:41:14;;;;;;;9.20;4.90;;;;;;;18.92;56.86;100524.27;106019;1274;22566;-78
2022/06/24 00:43:45;;;;;;;8.70;5.30;;;;;;;18.86;57.12;100522.73;106008;1274;25250;-81
2022/06/24 00:46:17;;;;;;;7.60;5.30;;;;;;;18.83;57.29;100521.97;105963;1274;23175;-82
2022/06/24 00:48:49;;;;;;;7.70;5.20;;;;;;;18.79;57.53;100520.89;105928;1274;23113;-81
2022/06/24 00:51:17;;;;;;;7.50;5.50;;;;;;;18.75;57.68;100517.84;106154;1274;24414;-81
2022/06/24 00:53:53;;;;;;;7.70;5.60;;;;;;;18.69;57.80;100523.04;106001;1274;23096;-80
2022/06/24 00:56:24;;;;;;;8.10;4.80;;;;;;;18.66;58.10;100524.45;106223;1270;23952;-81
2022/06/24 00:59:00;;;;;;;7.70;4.80;;;;;;;18.63;58.22;100522.27;106225;1270;22728;-81
2022/06/24 01:01:39;;;;;;;;;;;;;;;18.60;58.41;100521.13;106172;1270;22531;-81
2022/06/24 01:04:07;;;;;;;6.70;4.90;;;;;;;18.54;58.75;100519.39;106184;1270;25370;-78
2022/06/24 01:06:35;;;;;;;9.00;5.10;;;;;;;18.50;58.68;100523.48;106082;1270;22688;-80
2022/06/24 01:09:02;;;;;;;6.50;5.30;;;;;;;18.46;58.83;100522.95;106517;1270;23187;-80
2022/06/24 01:11:33;;;;;;;9.80;5.70;;;;;;;18.43;58.94;100523.04;106202;1270;22544;-79
2022/06/24 01:14:00;;;;;;;10.20;5.30;;;;;;;18.40;59.11;100526.20;106503;1270;22719;-80
2022/06/24 01:16:27;;;;;;;9.20;5.50;;;;;;;18.36;59.16;100527.05;106240;1273;22547;-81
2022/06/24 01:18:56;;;;;;;7.90;5.80;;;;;;;18.30;59.24;100523.53;106512;1270;24297;-80
2022/06/24 01:21:36;;;;;;;12.40;5.70;;;;;;;18.26;59.16;100521.19;106137;1271;24217;-76
2022/06/24 01:24:12;;;;;;;8.80;5.70;;;;;;;18.25;59.13;100517.67;106132;1270;25684;-76
2022/06/24 01:26:40;;;;;;;;;;;;;;;18.23;59.11;100519.71;106152;1270;25254;-77
2022/06/24 01:29:10;;;;;;;7.20;4.80;;;;;;;18.21;59.43;100515.69;106159;1270;22539;-77
2022/06/24 01:31:38;;;;;;;7.70;5.50;;;;;;;18.19;59.48;100516.84;106127;1271;24232;-79
2022/06/24 01:34:05;;;;;;;6.40;5.20;;;;;;;18.17;59.42;100518.71;106553;1270;22599;-79
2022/06/24 01:36:31;;;;;;;6.80;5.20;;;;;;;18.16;59.59;100516.42;108343;1270;25627;-78
2022/06/24 01:38:57;;;;;;;6.00;5.30;;;;;;;18.14;59.39;100512.19;108034;1271;25377;-77
2022/06/24 01:41:23;;;;;;;9.30;6.10;;;;;;;18.15;59.24;100513.27;106184;1270;25272;-78
2022/06/24 01:43:49;;;;;;;8.10;5.10;;;;;;;18.14;59.05;100507.78;106199;1270;22844;-79
2022/06/24 01:46:16;;;;;;;8.80;5.40;;;;;;;18.13;59.08;100506.54;106283;1270;25488;-78
2022/06/24 01:48:42;;;;;;;8.70;4.90;;;;;;;18.11;59.12;100511.94;106450;1270;22760;-78
2022/06/24 01:51:12;;;;;;;8.90;5.20;;;;;;;18.09;59.26;100509.87;106234;1270;25497;-80
2022/06/24 01:53:39;;;;;;;6.70;5.30;;;;;;;18.06;59.59;100510.54;106679;1270;22698;-80
2022/06/24 01:56:05;;;;;;;12.00;5.90;;;;;;;18.04;59.57;100510.44;106507;1271;25618;-76
2022/06/24 01:58:31;;;;;;;7.60;5.40;;;;;;;18.00;59.58;100507.54;106533;1270;22625;-78
2022/06/24 02:00:57;;;;;;;7.00;5.30;;;;;;;17.95;59.67;100508.98;106358;1271;22603;-80
2022/06/24 02:03:24;;;;;;;7.70;5.50;;;;;;;17.94;59.73;100512.06;106185;1271;22601;-80
2022/06/24 02:05:51;;;;;;;8.90;6.10;;;;;;;17.90;59.74;100516.31;106264;1271;23047;-78
2022/06/24 02:08:17;;;;;;;10.10;6.00;;;;;;;17.87;59.87;100516.61;106363;1270;25376;-80
2022/06/24 02:13:29;;;;;;;10.90;5.90;;;;;;;17.81;60.22;100517.67;106607;1270;25510;-78
2022/06/24 02:15:58;;;;;;;8.00;5.40;;;;;;;17.79;60.34;100519.53;106503;1270;24102;-78
2022/06/24 02:18:26;;;;;;;12.90;6.20;;;;;;;17.78;60.35;100522.27;106270;1270;22886;-80
2022/06/24 02:20:52;;;;;;;8.30;5.30;;;;;;;17.74;60.52;100518.33;106431;1270;22636;-84
2022/06/24 02:23:19;;;;;;;10.10;6.00;;;;;;;17.71;60.61;100520.20;108480;1270;22685;-84
2022/06/24 02:25:48;;;;;;;11.10;5.90;;;;;;;17.69;60.44;100522.21;109236;1270;22610;-84
2022/06/24 02:28:15;;;;;;;10.00;5.50;;;;;;;17.67;60.61;100519.09;109752;1270;22566;-83
2022/06/24 02:30:42;;;;;;;7.90;5.50;;;;;;;17.67;60.74;100522.48;109491;1270;22591;-81
2022/06/24 02:33:10;;;;;;;14.20;6.10;;;;;;;17.66;60.70;100520.56;109556;1270;22624;-79
2022/06/24 02:35:39;;;;;;;9.30;5.50;;;;;;;17.65;60.74;100524.15;109392;1270;22512;-78
2022/06/24 02:38:07;;;;;;;9.60;5.00;;;;;;;17.65;60.79;100525.92;109419;1270;25462;-78
2022/06/24 02:40:47;;;;;;;11.60;5.40;;;;;;;17.66;60.84;100525.36;108900;1270;24243;-78
2022/06/24 02:43:31;;;;;;;13.90;5.50;;;;;;;17.64;60.89;100525.63;106765;1273;23981;-80
2022/06/24 02:46:02;;;;;;;12.60;5.50;;;;;;;17.65;60.95;100524.69;106321;1273;22748;-78
2022/06/24 02:48:30;;;;;;;7.40;5.60;;;;;;;17.70;60.99;100530.21;106390;1270;23389;-78
2022/06/24 02:50:59;;;;;;;8.30;5.60;;;;;;;17.71;61.04;100533.03;106246;1270;22547;-79
2022/06/24 02:53:27;;;;;;;7.60;5.50;;;;;;;17.72;60.71;100534.98;106380;1269;22536;-80
2022/06/24 02:56:00;;;;;;;8.20;5.20;;;;;;;17.70;60.70;100537.52;106326;1270;25411;-85
2022/06/24 02:58:27;;;;;;;8.80;5.40;;;;;;;17.67;60.95;100537.25;106334;1270;24384;-85
2022/06/24 03:00:53;;;;;;;10.70;5.60;;;;;;;17.67;60.98;100536.00;106209;1271;26224;-85
2022/06/24 03:03:21;;;;;;;7.70;5.80;;;;;;;17.67;60.93;100537.44;106109;1270;22667;-80
2022/06/24 03:05:48;;;;;;;7.30;5.50;;;;;;;17.65;60.98;100537.68;106021;1270;24239;-82
2022/06/24 03:08:17;;;;;;;8.80;6.10;;;;;;;17.64;60.98;100537.18;106141;1270;22618;-81
2022/06/24 03:10:44;;;;;;;11.10;5.30;;;;;;;17.64;61.00;100536.66;106346;1273;22540;-80
2022/06/24 03:13:11;;;;;;;9.60;5.60;;;;;;;17.61;61.07;100535.16;106392;1270;22660;-79
2022/06/24 03:15:38;;;;;;;8.90;6.00;;;;;;;17.60;61.03;100537.34;107272;1270;25374;-82
2022/06/24 03:18:05;;;;;;;7.30;5.50;;;;;;;17.57;61.01;100532.45;106577;1270;22554;-79
2022/06/24 03:20:32;;;;;;;10.30;5.20;;;;;;;17.55;60.95;100534.64;106226;1272;25461;-78
2022/06/24 03:22:58;;;;;;;11.00;5.60;;;;;;;17.53;61.10;100535.80;106116;1271;25266;-80
2022/06/24 03:25:25;;;;;;;9.10;6.00;;;;;;;17.51;61.24;100538.73;106196;1270;22626;-83
2022/06/24 03:27:52;;;;;;;8.40;5.60;;;;;;;17.48;61.07;100541.87;106365;1270;24273;-84
2022/06/24 03:30:18;;;;;;;7.80;5.20;;;;;;;17.44;61.06;100538.24;106397;1271;25262;-84
2022/06/24 03:32:44;;;;;;;8.50;5.50;;;;;;;17.41;61.10;100537.83;106394;1272;22703;-83
2022/06/24 03:35:11;;;;;;;9.70;5.50;;;;;;;17.38;61.30;100544.89;106539;1271;22725;-83
2022/06/24 03:37:37;;;;;;;9.00;5.20;;;;;;;17.38;61.43;100545.21;106506;1270;24396;-84
2022/06/24 03:40:04;;;;;;;8.90;5.20;;;;;;;17.40;61.29;100545.36;106546;1268;22639;-79
2022/06/24 03:42:30;;;;;;;12.00;5.90;;;;;;;17.41;61.35;100542.27;106279;1270;23424;-80
2022/06/24 03:44:56;;;;;;;6.50;4.80;;;;;;;17.43;61.42;100546.67;106276;1270;25275;-81
2022/06/24 03:47:23;;;;;;;12.10;5.80;;;;;;;17.44;61.34;100545.54;106226;1273;23926;-82
2022/06/24 03:49:52;;;;;;;8.50;5.60;;;;;;;17.46;61.35;100547.09;106106;1271;22557;-78
2022/06/24 03:52:19;;;;;;;6.50;4.90;;;;;;;17.46;61.24;100547.80;106155;1270;25386;-79
2022/06/24 03:54:45;;;;;;;8.70;5.30;;;;;;;17.47;61.33;100550.58;106216;1273;22541;-75
2022/06/24 03:57:12;;;;;;;7.80;5.50;;;;;;;17.46;61.28;100550.46;106268;1271;22849;-78
2022/06/24 03:59:38;;;;;;;7.10;5.10;;;;;;;17.43;61.06;100552.71;106379;1270;23973;-75
2022/06/24 04:02:04;;;;;;;10.30;5.70;;;;;;;17.43;61.27;100550.94;106372;1270;22553;-77
2022/06/24 04:04:30;;;;;;;8.90;5.70;;;;;;;17.46;61.28;100554.58;106343;1270;22552;-79
2022/06/24 04:06:57;;;;;;;8.20;5.20;;;;;;;17.46;61.25;100555.30;106305;1270;24238;-79
2022/06/24 04:09:23;;;;;;;8.30;5.40;;;;;;;17.42;61.16;100553.63;106086;1274;22556;-86
2022/06/24 04:11:49;;;;;;;7.90;4.80;;;;;;;17.46;61.44;100556.88;106019;1275;24364;-83
2022/06/24 04:17:03;;;;;;;10.00;6.10;;;;;;;17.53;61.41;100556.63;105303;1284;24309;-83
2022/06/24 04:19:30;;;;;;;9.00;5.30;;;;;;;17.58;61.32;100558.59;105303;1285;26701;-79
2022/06/24 04:21:57;;;;;;;8.20;5.50;;;;;;;17.63;61.39;100562.70;104989;1283;326819;-83
2022/06/24 04:24:23;;;;;;;10.90;5.70;;;;;;;17.66;61.27;100563.64;105518;1284;22677;-81
2022/06/24 04:26:49;;;;;;;9.20;5.20;;;;;;;17.72;61.23;100561.85;105100;1280;22563;-83
2022/06/24 04:29:15;;;;;;;9.90;5.10;;;;;;;17.77;60.93;100563.28;105609;1280;22573;-83
2022/06/24 04:31:42;;;;;;;7.80;5.00;;;;;;;17.82;61.07;100563.45;105235;1284;22547;-83
2022/06/24 04:34:08;;;;;;;7.20;4.60;;;;;;;17.87;60.76;100569.14;105146;1285;22579;-84
2022/06/24 04:36:34;;;;;;;6.00;4.50;;;;;;;17.91;60.59;100565.26;105108;1281;22622;-81
2022/06/24 04:39:00;;;;;;;12.40;4.40;;;;;;;17.97;60.31;100563.98;105490;1278;26401;-81
2022/06/24 04:41:27;;;;;;;6.10;4.70;;;;;;;18.02;60.08;100563.08;105761;1274;25323;-82
2022/06/24 04:43:53;;;;;;;6.90;4.80;;;;;;;18.08;59.67;100564.83;106120;1274;26712;-86
2022/06/24 04:46:20;;;;;;;9.90;4.90;;;;;;;18.12;59.42;100562.54;106264;1274;22542;-81
2022/06/24 04:48:47;;;;;;;6.40;4.30;;;;;;;18.18;59.36;100564.83;106075;1274;24290;-83
2022/06/24 04:51:14;;;;;;;6.50;4.50;;;;;;;18.23;59.13;100558.59;106790;1270;22798;-82
2022/06/24 04:53:40;;;;;;;6.00;3.80;;;;;;;18.30;58.93;100566.49;108807;1270;22854;-80
2022/06/24 04:56:06;;;;;;;6.10;4.10;;;;;;;18.36;58.90;100566.64;109553;1270;22714;-85
2022/06/24 04:58:33;;;;;;;6.30;4.10;;;;;;;18.40;58.76;100562.91;108820;1271;22658;-81
2022/06/24 05:00:59;;;;;;;9.40;3.30;;;;;;;18.47;58.41;100567.08;108792;1271;22568;-81
2022/06/24 05:03:25;;;;;;;5.50;3.70;;;;;;;18.54;58.33;100568.08;108913;1270;22540;-80
2022/06/24 05:05:51;;;;;;;5.80;3.60;;;;;;;18.60;58.24;100563.55;108909;1274;22587;-81
2022/06/24 05:08:17;;;;;;;4.20;2.90;;;;;;;18.67;58.01;100564.88;108375;1274;26838;-82
2022/06/24 05:10:45;;;;;;;4.10;3.30;;;;;;;18.75;57.68;100569.02;107782;1274;25366;-81
2022/06/24 05:13:11;;;;;;;4.00;3.00;;;;;;;18.81;57.28;100566.81;106905;1274;22544;-85
2022/06/24 05:15:37;;;;;;;10.20;3.30;;;;;;;18.88;56.93;100565.13;106820;1274;23000;-81
2022/06/24 05:18:03;;;;;;;5.70;3.10;;;;;;;18.95;56.61;100564.66;106338;1274;22744;-80
2022/06/24 05:20:30;;;;;;;6.50;3.30;;;;;;;19.00;56.37;100560.69;106217;1274;22543;-79
2022/06/24 05:22:56;;;;;;;5.40;3.40;;;;;;;19.06;56.08;100561.16;106112;1274;23976;-80
2022/06/24 05:25:22;;;;;;;5.00;3.30;;;;;;;19.09;56.03;100553.56;106436;1271;23082;-78
2022/06/24 05:27:48;;;;;;;6.30;3.40;;;;;;;19.16;55.61;100556.32;106315;1270;22708;-82
2022/06/24 05:30:15;;;;;;;5.90;3.30;;;;;;;19.21;55.28;100557.00;106417;1271;23523;-78
2022/06/24 05:32:41;;;;;;;5.50;3.40;;;;;;;19.25;55.19;100556.83;106294;1271;25200;-78
2022/06/24 05:35:11;;;;;;;7.10;3.50;;;;;;;19.32;55.12;100557.78;106283;1270;23331;-78
2022/06/24 05:37:38;;;;;;;6.50;3.50;;;;;;;19.38;55.18;100560.05;106229;1274;25542;-77
2022/06/24 05:40:06;;;;;;;10.80;3.50;;;;;;;19.42;55.20;100559.32;106387;1270;25457;-81
2022/06/24 05:42:34;;;;;;;8.00;3.40;;;;;;;19.47;55.34;100560.20;106225;1271;22485;-79
2022/06/24 05:45:01;;;;;;;5.50;3.20;;;;;;;19.51;55.30;100559.83;106205;1273;22541;-79
2022/06/24 05:47:27;;;;;;;4.50;3.20;;;;;;;19.55;55.21;100559.64;106321;1273;25544;-80
2022/06/24 05:49:53;;;;;;;6.30;4.10;;;;;;;19.60;55.14;100564.44;106400;1271;24235;-79
2022/06/24 05:55:02;;;;;;;6.30;3.70;;;;;;;19.65;55.25;100564.61;106291;1273;25875;-82
2022/06/24 05:55:05;;;;;;;;;;;;;;;19.69;54.79;100560.47;106328;1270;22686;-81
2022/06/24 05:57:31;;;;;;;6.30;3.90;;;;;;;19.72;54.76;100563.21;106608;1270;22562;-79
2022/06/24 05:59:57;;;;;;;7.40;3.90;;;;;;;19.75;54.59;100559.85;107062;1270;22486;-77
2022/06/24 06:02:24;;;;;;;8.90;3.80;;;;;;;19.79;54.34;100561.48;107588;1271;23932;-77
2022/06/24 06:04:50;;;;;;;3.40;3.10;;;;;;;19.83;54.17;100561.64;107225;1270;25261;-77
2022/06/24 06:07:16;;;;;;;6.30;3.50;;;;;;;19.88;54.00;100562.64;106391;1270;24271;-82
2022/06/24 06:09:42;;;;;;;5.10;3.30;;;;;;;19.94;53.37;100561.86;106209;1273;22540;-78
2022/06/24 06:12:08;;;;;;;6.50;2.70;;;;;;;20.00;53.39;100563.19;106308;1271;24210;-79
2022/06/24 06:14:35;;;;;;;4.90;3.10;;;;;;;20.05;53.21;100560.13;106352;1273;23395;-80
2022/06/24 06:17:02;;;;;;;5.00;3.10;;;;;;;20.11;53.16;100562.20;106122;1272;22535;-79
2022/06/24 06:19:28;;;;;;;5.30;2.80;;;;;;;20.17;52.86;100561.37;106221;1271;22540;-81
2022/06/24 06:21:54;;;;;;;9.30;3.60;;;;;;;20.23;52.97;100565.20;106302;1270;22565;-83
2022/06/24 06:24:20;;;;;;;6.30;2.60;;;;;;;20.29;52.53;100563.16;106369;1271;24298;-79
2022/06/24 06:26:48;;;;;;;8.70;2.90;;;;;;;20.32;52.34;100560.50;106190;1271;22569;-80
2022/06/24 06:29:14;;;;;;;10.30;3.30;;;;;;;20.39;52.03;100563.77;106170;1272;23218;-79
2022/06/24 06:31:41;;;;;;;13.00;3.80;;;;;;;20.44;52.38;100558.70;105664;1278;23946;-78
2022/06/24 06:34:07;;;;;;;7.00;2.90;;;;;;;20.49;52.51;100559.34;105649;1279;23830;-80
2022/06/24 06:36:33;;;;;;;8.50;3.00;;;;;;;20.51;52.59;100550.86;105621;1278;25450;-78
2022/06/24 06:39:00;;;;;;;6.40;2.90;;;;;;;20.59;52.56;100557.45;105778;1279;22765;-79
2022/06/24 06:41:26;;;;;;;7.40;4.50;;;;;;;20.64;52.67;100557.73;105863;1278;22552;-79
2022/06/24 06:43:52;;;;;;;5.50;3.60;;;;;;;20.70;52.24;100557.09;105699;1281;22535;-80
2022/06/24 06:46:24;;;;;;;6.10;2.90;;;;;;;20.76;51.60;100557.52;105802;1278;22562;-81
2022/06/24 06:48:50;;;;;;;4.60;3.30;;;;;;;20.82;51.57;100555.62;105783;1281;22601;-80
2022/06/24 06:51:17;;;;;;;9.60;5.40;;;;;;;20.87;51.37;100554.09;106178;1271;24229;-79
2022/06/24 06:53:43;;;;;;;8.30;3.80;;;;;;;20.92;51.33;100550.66;105987;1278;22640;-79
2022/06/24 06:56:09;;;;;;;7.30;3.40;;;;;;;20.98;51.36;100546.96;105943;1278;25427;-78
2022/06/24 06:58:35;;;;;;;8.10;3.00;;;;;;;21.04;51.06;100546.88;105971;1277;23054;-79
2022/06/24 07:01:02;;;;;;;4.30;3.00;;;;;;;21.10;51.12;100545.27;105946;1277;24606;-79
2022/06/24 07:03:29;;;;;;;5.30;2.80;;;;;;;21.17;50.99;100545.69;106036;1276;22541;-80
2022/06/24 07:05:55;;;;;;;4.50;3.10;;;;;;;21.22;50.53;100544.86;105859;1277;22553;-78
2022/06/24 07:08:23;;;;;;;4.70;3.20;;;;;;;21.29;50.29;100546.70;105952;1277;22548;-80
2022/06/24 07:10:49;;;;;;;5.00;2.60;;;;;;;21.36;49.71;100547.79;106038;1279;25272;-79
2022/06/24 07:13:16;;;;;;;4.80;2.50;;;;;;;21.42;49.48;100539.05;106607;1271;22547;-80
2022/06/24 07:15:42;;;;;;;4.30;2.80;;;;;;;21.48;49.27;100540.85;106063;1277;25395;-79
2022/06/24 07:18:09;;;;;;;3.20;2.40;;;;;;;21.53;48.90;100536.47;105989;1274;26530;-76
2022/06/24 07:20:35;;;;;;;5.10;2.70;;;;;;;21.59;48.88;100542.10;105929;1275;22556;-77
2022/06/24 07:23:02;;;;;;;7.80;3.00;;;;;;;21.66;49.02;100537.95;105984;1275;24276;-79
2022/06/24 07:25:32;;;;;;;7.00;2.90;;;;;;;21.73;49.00;100539.35;106031;1274;22598;-81
2022/06/24 07:27:58;;;;;;;4.50;2.60;;;;;;;21.81;48.76;100540.60;106221;1274;22555;-80
2022/06/24 07:30:25;;;;;;;5.90;2.40;;;;;;;21.86;48.01;100535.50;106195;1274;22723;-79
2022/06/24 07:32:51;;;;;;;5.30;2.50;;;;;;;21.93;47.59;100538.52;106519;1274;24513;-78
2022/06/24 07:35:18;;;;;;;3.00;2.20;;;;;;;22.00;47.51;100539.20;106373;1274;22749;-81
2022/06/24 07:38:04;;;;;;;4.40;2.30;;;;;;;22.10;47.18;100534.38;106266;1274;25631;-80
2022/06/24 07:40:30;;;;;;;3.60;2.30;;;;;;;22.18;46.90;100530.67;106353;1270;23731;-79
2022/06/24 07:42:57;;;;;;;3.10;2.60;;;;;;;22.28;46.73;100537.34;106644;1273;22997;-77
2022/06/24 07:45:23;;;;;;;4.20;2.20;;;;;;;22.35;46.38;100537.27;106904;1271;25534;-78
2022/06/24 07:47:49;;;;;;;4.40;1.80;;;;;;;22.43;45.50;100536.29;106756;1271;22736;-77
2022/06/24 07:50:15;;;;;;;3.70;1.80;;;;;;;22.53;45.58;100535.59;106568;1274;25178;-77
2022/06/24 07:52:42;;;;;;;4.50;2.10;;;;;;;22.63;45.57;100530.19;106526;1271;22714;-80
2022/06/24 07:57:54;;;;;;;3.80;1.90;;;;;;;22.85;45.29;100519.73;106276;1271;22554;-82
2022/06/24 08:00:20;;;;;;;2.00;1.90;;;;;;;22.96;45.12;100517.85;106227;1271;23181;-81
2022/06/24 08:02:46;;;;;;;3.80;2.00;;;;;;;23.08;45.02;100514.29;106190;1272;22608;-79
2022/06/24 08:05:13;;;;;;;3.50;1.90;;;;;;;23.17;45.07;100506.95;106090;1274;22696;-77
2022/06/24 08:07:40;;;;;;;3.60;2.10;;;;;;;23.33;44.62;100510.67;106180;1271;22726;-77
2022/06/24 08:10:06;;;;;;;2.80;1.90;;;;;;;23.43;43.93;100508.98;106220;1271;24321;-81
2022/06/24 08:12:32;;;;;;;2.70;1.60;;;;;;;23.52;43.50;100508.98;106400;1272;22551;-80
2022/06/24 08:14:59;;;;;;;3.00;2.20;;;;;;;23.61;43.10;100505.39;106231;1271;25264;-81
2022/06/24 08:17:25;;;;;;;2.30;2.00;;;;;;;23.70;43.31;100504.27;106290;1272;22704;-80
2022/06/24 08:19:52;;;;;;;3.20;1.50;;;;;;;23.81;43.23;100500.90;106077;1271;25441;-77
2022/06/24 08:22:20;;;;;;;3.20;2.00;;;;;;;23.97;43.27;100503.70;106331;1274;24236;-79
2022/06/24 08:24:47;;;;;;;3.30;1.80;;;;;;;24.10;42.58;100501.76;106245;1274;25354;-80
2022/06/24 08:27:34;;;;;;;1.90;1.50;;;;;;;24.20;41.57;100492.33;106114;1271;25266;-80
2022/06/24 08:30:00;;;;;;;2.30;1.30;;;;;;;24.28;41.03;100489.70;106116;1274;22544;-82
2022/06/24 08:32:26;;;;;;;1.70;1.60;;;;;;;24.39;41.80;100493.11;106207;1271;24241;-79
2022/06/24 08:34:53;;;;;;;1.40;1.30;;;;;;;24.53;40.93;100489.54;106059;1275;23964;-80
2022/06/24 08:37:39;;;;;;;3.20;1.50;;;;;;;24.66;39.67;100481.43;106050;1274;22646;-80
2022/06/24 08:40:06;;;;;;;1.80;1.50;;;;;;;24.77;39.92;100481.46;106072;1274;22561;-79
2022/06/24 08:42:37;;;;;;;4.40;1.70;;;;;;;24.90;39.67;100482.41;106031;1274;24249;-79
2022/06/24 08:45:03;;;;;;;3.40;2.10;;;;;;;25.02;39.82;100474.93;106084;1274;24231;-80
2022/06/24 08:47:30;;;;;;;6.70;1.90;;;;;;;25.13;39.93;100474.18;106611;1274;24221;-78
2022/06/24 08:49:56;;;;;;;2.20;1.70;;;;;;;25.19;39.40;100473.20;107276;1274;22569;-80
2022/06/24 08:52:23;;;;;;;3.00;1.70;;;;;;;25.23;38.73;100473.98;106899;1275;25389;-79
2022/06/24 08:54:50;;;;;;;2.20;1.90;;;;;;;25.27;39.50;100467.11;106506;1271;25378;-78
2022/06/24 08:57:16;;;;;;;4.00;2.70;;;;;;;25.42;39.51;100471.61;106262;1271;22696;-77
2022/06/24 08:59:43;;;;;;;2.90;1.70;;;;;;;25.54;38.92;100471.48;106230;1271;26054;-79
2022/06/24 09:02:14;;;;;;;3.80;1.70;;;;;;;25.57;38.82;100462.98;106265;1270;25494;-79
2022/06/24 09:04:45;;;;;;;7.00;1.70;;;;;;;25.67;38.94;100466.34;105979;1271;22485;-77
2022/06/24 09:07:31;;;;;;;4.50;1.60;;;;;;;25.77;39.12;100463.23;106105;1271;22635;-80
2022/06/24 09:10:00;;;;;;;2.20;1.80;;;;;;;25.86;38.77;100464.45;106262;1270;24232;-78
2022/06/24 09:12:36;;;;;;;6.20;1.70;;;;;;;25.91;38.56;100464.60;106211;1271;22650;-80
2022/06/24 09:15:04;;;;;;;4.10;1.70;;;;;;;25.95;38.26;100461.18;106274;1273;24238;-78
2022/06/24 09:17:32;;;;;;;2.80;2.10;;;;;;;26.01;38.56;100468.95;106115;1270;25526;-79
2022/06/24 09:20:23;;;;;;;3.30;1.70;;;;;;;26.07;38.27;100465.39;106322;1270;24308;-79
2022/06/24 09:23:01;;;;;;;2.40;1.80;;;;;;;26.14;38.53;100454.27;106157;1270;25395;-79
2022/06/24 09:26:00;;;;;;;3.70;1.60;;;;;;;26.25;38.67;100452.16;106334;1270;25951;-79
2022/06/24 09:28:29;;;;;;;1.70;1.60;;;;;;;26.40;38.20;100451.10;106232;1270;24236;-82
2022/06/24 09:31:04;;;;;;;6.40;1.90;;;;;;;26.45;38.01;100457.42;106206;1272;22816;-80
2022/06/24 09:33:39;;;;;;;4.60;1.60;;;;;;;26.56;38.06;100449.39;106705;1271;22867;-80
2022/06/24 09:36:07;;;;;;;2.40;1.30;;;;;;;26.71;37.84;100440.34;106985;1271;22708;-78
2022/06/24 09:38:54;;;;;;;3.00;2.20;;;;;;;26.83;37.46;100442.46;106781;1270;22660;-79
2022/06/24 09:41:21;;;;;;;2.70;1.50;;;;;;;26.97;37.27;100441.05;106678;1272;25671;-79
2022/06/24 09:43:47;;;;;;;4.10;1.60;;;;;;;27.11;36.98;100434.17;106807;1270;22609;-77
2022/06/24 09:46:19;;;;;;;1.50;1.40;;;;;;;27.21;36.59;100433.77;107288;1270;22535;-76
2022/06/24 09:48:46;;;;;;;3.10;1.70;;;;;;;27.29;36.34;100438.04;106936;1270;22540;-81
2022/06/24 09:51:15;;;;;;;4.80;1.70;;;;;;;27.33;36.10;100428.15;106235;1270;25539;-79
2022/06/24 09:53:45;;;;;;;5.20;1.60;;;;;;;27.42;36.31;100426.33;106266;1270;25407;-80
2022/06/24 09:56:13;;;;;;;2.50;1.60;;;;;;;27.55;36.06;100434.16;106145;1272;24245;-82
2022/06/24 10:00:40;;;;;;;5.20;1.60;;;;;;;27.62;35.71;100433.28;106204;1270;24301;-78
2022/06/24 10:01:36;;;;;;;2.50;1.40;;;;;;;27.71;35.48;100432.98;107524;1270;24364;-78
2022/06/24 10:04:04;;;;;;;3.20;1.80;;;;;;;27.76;35.19;100421.88;106398;1270;22613;-80
2022/06/24 10:06:36;;;;;;;2.70;1.50;;;;;;;27.81;35.27;100420.70;106143;1270;22586;-80
2022/06/24 10:09:05;;;;;;;2.00;1.50;;;;;;;27.95;35.11;100411.28;106323;1270;23968;-78
2022/06/24 10:11:37;;;;;;;2.50;1.70;;;;;;;28.14;35.27;100412.77;106143;1271;23358;-78
2022/06/24 10:14:04;;;;;;;6.50;1.70;;;;;;;28.33;34.81;100418.31;106015;1270;25265;-80
2022/06/24 10:16:31;;;;;;;3.40;1.50;;;;;;;28.45;34.56;100409.75;106238;1270;26555;-79
2022/06/24 10:18:59;;;;;;;1.50;1.40;;;;;;;28.57;34.74;100400.94;106459;1270;25439;-82
2022/06/24 10:21:26;;;;;;;3.40;1.90;;;;;;;28.72;34.67;100394.73;106308;1271;24785;-81
2022/06/24 10:23:53;;;;;;;2.80;1.60;;;;;;;28.80;34.42;100395.54;106252;1271;26652;-80
2022/06/24 10:26:25;;;;;;;3.40;1.60;;;;;;;28.87;34.13;100394.36;106194;1272;22589;-78
2022/06/24 10:29:03;;;;;;;2.40;1.40;;;;;;;28.85;33.57;100390.60;106107;1271;22657;-80
2022/06/24 10:31:56;;;;;;;3.40;1.50;;;;;;;28.84;34.04;100385.42;106333;1270;22562;-80
2022/06/24 10:34:29;;;;;;;5.70;1.40;;;;;;;28.77;33.87;100387.83;106285;1270;24363;-82
2022/06/24 10:36:58;;;;;;;2.60;1.90;;;;;;;28.75;33.82;100383.84;106212;1273;22561;-82
2022/06/24 10:39:27;;;;;;;5.90;1.50;;;;;;;28.92;33.73;100392.69;106229;1270;22651;-81
2022/06/24 10:42:09;;;;;;;4.60;1.30;;;;;;;28.99;33.08;100395.05;106241;1270;25271;-78
2022/06/24 10:44:37;;;;;;;1.50;1.40;;;;;;;29.04;33.15;100387.68;106352;1270;24238;-80
2022/06/24 10:47:12;;;;;;;2.30;1.30;;;;;;;29.11;33.37;100383.98;106132;1270;22556;-79
2022/06/24 10:49:50;;;;;;;;;;;;;;;29.32;33.11;100381.50;106309;1270;25245;-77
2022/06/24 10:52:36;;;;;;;3.70;1.50;;;;;;;29.22;32.68;100376.65;106137;1270;25260;-78
2022/06/24 10:55:15;;;;;;;1.50;1.40;;;;;;;29.05;32.96;100375.31;106164;1270;22639;-81
2022/06/24 10:58:11;;;;;;;2.50;1.50;;;;;;;29.13;33.12;100374.77;106410;1270;25218;-79
2022/06/24 11:00:37;;;;;;;2.20;1.10;;;;;;;29.39;32.60;100379.20;105912;1278;22604;-79
2022/06/24 11:03:03;;;;;;;4.40;1.60;;;;;;;29.41;32.28;100376.72;105762;1277;25322;-81
2022/06/24 11:05:32;;;;;;;4.50;1.60;;;;;;;29.40;32.02;100371.64;105764;1277;26523;-76
2022/06/24 11:07:59;;;;;;;8.40;1.50;;;;;;;29.27;31.87;100365.08;105758;1280;25440;-80
2022/06/24 11:10:31;;;;;;;1.70;1.50;;;;;;;29.30;31.81;100362.03;105453;1281;26542;-82
2022/06/24 11:12:59;;;;;;;1.50;1.40;;;;;;;29.32;31.96;100358.83;105362;1281;25267;-80
2022/06/24 11:15:33;;;;;;;3.70;1.40;;;;;;;29.44;31.87;100351.92;105424;1282;22557;-81
2022/06/24 11:18:15;;;;;;;1.60;1.50;;;;;;;29.67;31.76;100357.91;105650;1281;22710;-77
2022/06/24 11:20:43;;;;;;;1.50;1.40;;;;;;;29.96;31.74;100352.93;105716;1281;22865;-79
2022/06/24 11:23:12;;;;;;;2.90;1.40;;;;;;;30.21;31.62;100348.11;105439;1281;22829;-78
2022/06/24 11:25:45;;;;;;;1.80;1.50;;;;;;;30.35;31.61;100344.05;105786;1281;24249;-81
2022/06/24 11:28:32;;;;;;;5.00;1.70;;;;;;;30.38;31.34;100345.61;106069;1278;24956;-79
2022/06/24 11:31:19;;;;;;;3.70;1.50;;;;;;;30.62;30.91;100340.48;107482;1278;25393;-79
2022/06/24 11:34:07;;;;;;;2.70;1.50;;;;;;;30.67;30.81;100344.13;106413;1278;24956;-80